Time;durP1;ratioP1;P1;durP2;ratioP2;P2;SDS_P1;SDS_P2;PMS_P1;PMS_P2;Temp;Humidity;BMP_temperature;BMP_pressure;BME280_temperature;BME280_humidity;BME280_pressure;Samples;Min_cycle;Max_cycle;Signal;HPM_P1;HPM_P2
2022/04/18 00:02:01;;;;;;;15.23;8.95;;;;;;;13.21;34.33;102044.97;5157181;28;21046;-45
2022/04/18 00:04:35;;;;;;;16.30;9.10;;;;;;;13.17;34.46;102044.41;5173347;28;20441;-45
2022/04/18 00:07:07;;;;;;;13.50;8.88;;;;;;;13.12;34.52;102043.97;5169583;28;20465;-45
2022/04/18 00:09:40;;;;;;;14.93;9.68;;;;;;;13.07;34.49;102038.25;5173924;28;20414;-46
2022/04/18 00:12:13;;;;;;;12.83;9.10;;;;;;;12.55;34.48;101958.03;5175761;28;20421;-46
2022/04/18 00:14:45;;;;;;;16.15;9.35;;;;;;;13.05;34.56;102041.03;5172276;28;20415;-45
2022/04/18 00:17:17;;;;;;;12.45;9.43;;;;;;;13.03;34.55;102039.50;5164809;28;20543;-46
2022/04/18 00:19:51;;;;;;;12.73;8.93;;;;;;;12.96;34.52;102027.75;5174594;28;20406;-48
2022/04/18 00:22:24;;;;;;;16.83;9.63;;;;;;;12.97;34.57;102042.69;5177571;28;20506;-46
2022/04/18 00:24:56;;;;;;;15.40;10.38;;;;;;;12.94;34.68;102035.84;5173036;28;20409;-44
2022/04/18 00:27:29;;;;;;;14.75;9.40;;;;;;;12.91;34.62;102036.09;5156016;28;21045;-49
2022/04/18 00:30:01;;;;;;;16.88;9.32;;;;;;;12.87;34.75;102030.25;5166367;28;20532;-45
2022/04/18 00:32:35;;;;;;;14.13;8.38;;;;;;;12.86;34.79;102033.88;5171408;28;20989;-45
2022/04/18 00:35:10;;;;;;;15.10;10.17;;;;;;;12.81;34.82;102028.13;5173919;28;20428;-44
2022/04/18 00:37:42;;;;;;;13.97;9.37;;;;;;;12.79;34.76;102026.59;5168700;28;20417;-46
2022/04/18 00:40:14;;;;;;;13.73;8.90;;;;;;;12.76;34.91;102030.38;5176326;28;20423;-45
2022/04/18 00:42:47;;;;;;;14.90;9.35;;;;;;;12.73;34.94;102029.78;5181747;28;20427;-48
2022/04/18 00:45:19;;;;;;;13.95;9.73;;;;;;;12.70;34.83;102028.25;5179533;28;20782;-45
2022/04/18 00:47:55;;;;;;;11.80;9.02;;;;;;;12.65;34.88;102027.81;5180167;28;20415;-46
2022/04/18 00:50:32;;;;;;;13.90;9.60;;;;;;;12.59;35.09;102037.13;5173536;28;20989;-44
2022/04/18 00:53:06;;;;;;;17.25;10.48;;;;;;;12.56;35.12;102023.31;5164408;28;20908;-44
2022/04/18 00:55:38;;;;;;;16.55;10.23;;;;;;;12.52;35.08;102040.47;5167924;28;20409;-45
2022/04/18 00:58:11;;;;;;;16.80;10.57;;;;;;;12.49;35.08;102022.19;5175298;28;20466;-44
2022/04/18 01:00:44;;;;;;;16.38;10.38;;;;;;;12.45;35.26;102027.75;5177840;28;20494;-44
2022/04/18 01:03:16;;;;;;;20.75;11.60;;;;;;;12.39;35.36;102020.31;5165043;28;20411;-48
2022/04/18 01:05:50;;;;;;;15.88;10.95;;;;;;;12.37;35.36;102014.31;5172159;28;20412;-48
2022/04/18 01:08:25;;;;;;;14.77;10.30;;;;;;;12.36;35.47;102017.94;5167571;28;20425;-45
2022/04/18 01:10:57;;;;;;;18.95;11.25;;;;;;;12.24;35.32;102005.75;5178136;28;20903;-47
2022/04/18 01:13:30;;;;;;;16.63;11.18;;;;;;;12.22;35.51;102000.56;5179652;28;20419;-45
2022/04/18 01:16:02;;;;;;;15.43;10.73;;;;;;;12.21;35.54;102001.56;5150792;28;20422;-45
2022/04/18 01:18:35;;;;;;;18.20;10.13;;;;;;;12.24;35.55;102011.03;5164368;28;20540;-46
2022/04/18 01:21:09;;;;;;;15.27;10.27;;;;;;;12.17;35.56;102000.16;5181687;28;20489;-44
2022/04/18 01:23:41;;;;;;;16.27;10.23;;;;;;;12.07;35.61;101987.81;5176217;28;20486;-44
2022/04/18 01:29:05;;;;;;;16.98;9.40;;;;;;;12.05;35.91;101997.69;5171222;28;20423;-48
2022/04/18 01:31:43;;;;;;;19.35;10.30;;;;;;;12.03;36.09;101997.81;5181410;28;20423;-48
2022/04/18 01:34:15;;;;;;;13.57;9.43;;;;;;;11.99;36.04;101994.59;5178078;28;20488;-45
2022/04/18 01:36:49;;;;;;;16.58;10.10;;;;;;;11.99;36.08;102002.53;5173379;28;20502;-43
2022/04/18 01:39:21;;;;;;;15.90;10.25;;;;;;;11.98;36.02;102000.88;5170988;28;20404;-51
2022/04/18 01:41:54;;;;;;;16.05;9.75;;;;;;;11.89;36.05;101985.78;5179519;28;20425;-49
2022/04/18 01:44:28;;;;;;;14.77;9.30;;;;;;;11.93;36.49;101997.78;5159960;28;20483;-46
2022/04/18 01:47:00;;;;;;;14.70;10.93;;;;;;;11.91;36.26;101989.13;5158172;28;20423;-49
2022/04/18 01:49:33;;;;;;;15.27;10.13;;;;;;;11.91;36.46;101999.69;5170427;28;20838;-45
2022/04/18 01:52:07;;;;;;;13.20;9.18;;;;;;;11.87;36.39;101998.28;5174804;28;20513;-46
2022/04/18 01:54:40;;;;;;;17.92;10.52;;;;;;;11.85;36.49;101991.44;5176682;28;20405;-44
2022/04/18 01:57:12;;;;;;;12.95;9.30;;;;;;;11.82;36.38;101995.16;5181126;28;20505;-47
2022/04/18 01:59:44;;;;;;;12.80;9.90;;;;;;;11.79;36.54;101995.41;5176709;28;20452;-44
2022/04/18 02:02:17;;;;;;;15.48;9.70;;;;;;;11.78;36.79;101999.03;5166502;28;20561;-45
2022/04/18 02:04:49;;;;;;;12.75;9.43;;;;;;;11.76;36.74;101990.38;5170286;28;20421;-44
2022/04/18 02:07:23;;;;;;;17.10;9.43;;;;;;;11.74;36.93;101992.34;5176148;28;20426;-46
2022/04/18 02:10:14;;;;;;;15.33;10.20;;;;;;;11.73;37.07;101985.34;5175896;28;20594;-44
2022/04/18 02:12:46;;;;;;;14.05;9.52;;;;;;;11.70;36.68;101980.31;5172980;28;20424;-45
2022/04/18 02:15:19;;;;;;;13.60;9.50;;;;;;;11.69;37.09;101983.94;5165954;28;20391;-49
2022/04/18 02:17:51;;;;;;;13.75;9.20;;;;;;;11.47;37.03;101942.56;5181624;28;20424;-45
2022/04/18 02:20:24;;;;;;;14.18;9.05;;;;;;;11.67;37.08;101969.97;5174028;28;20447;-45
2022/04/18 02:22:58;;;;;;;13.43;8.93;;;;;;;11.66;37.06;101968.31;5161256;28;20899;-47
2022/04/18 02:25:30;;;;;;;14.00;9.10;;;;;;;11.64;37.08;101965.78;5167789;28;20982;-44
2022/04/18 02:28:03;;;;;;;14.18;8.15;;;;;;;11.66;37.04;101963.03;5166177;28;20487;-50
2022/04/18 02:30:35;;;;;;;15.40;9.13;;;;;;;11.47;37.18;101930.16;5168862;28;20432;-46
2022/04/18 02:33:07;;;;;;;14.55;9.18;;;;;;;11.66;37.20;101968.31;5162980;28;23206;-44
2022/04/18 02:35:40;;;;;;;14.03;9.00;;;;;;;11.69;37.28;101965.41;5154523;28;20420;-46
2022/04/18 02:38:14;;;;;;;13.15;8.68;;;;;;;11.69;37.27;101965.41;5175868;28;20419;-45
2022/04/18 02:40:46;;;;;;;13.23;8.30;;;;;;;11.67;37.08;101956.75;5174021;28;20877;-46
2022/04/18 02:43:19;;;;;;;11.10;7.90;;;;;;;11.66;37.13;101955.09;5171537;28;20460;-46
2022/04/18 02:45:51;;;;;;;13.45;7.82;;;;;;;11.69;37.18;101952.19;5158853;28;20419;-46
2022/04/18 02:48:24;;;;;;;13.05;7.80;;;;;;;11.49;37.36;101916.84;5165212;28;20848;-45
2022/04/18 02:50:57;;;;;;;11.13;7.85;;;;;;;11.73;37.18;101951.78;5181483;28;20432;-45
2022/04/18 02:53:31;;;;;;;10.95;7.97;;;;;;;11.71;37.37;101937.84;5180239;28;20781;-47
2022/04/18 02:56:04;;;;;;;11.18;7.78;;;;;;;11.17;37.41;101848.94;5169179;28;20420;-46
2022/04/18 02:58:39;;;;;;;13.27;7.97;;;;;;;11.78;37.45;101941.66;5178612;28;20419;-48
2022/04/18 03:01:12;;;;;;;13.10;7.30;;;;;;;11.77;37.30;101947.09;5177507;28;20636;-42
2022/04/18 03:03:44;;;;;;;12.40;8.07;;;;;;;11.74;37.36;101945.53;5181216;28;20436;-45
2022/04/18 03:06:17;;;;;;;10.27;7.30;;;;;;;11.75;37.41;101938.44;5179540;28;20486;-47
2022/04/18 03:08:51;;;;;;;13.07;7.63;;;;;;;11.75;37.36;101941.06;5162208;28;20419;-45
2022/04/18 03:11:23;;;;;;;11.18;7.88;;;;;;;11.69;37.52;101945.06;5165516;28;20505;-44
2022/04/18 03:13:55;;;;;;;11.97;8.27;;;;;;;11.69;37.43;101936.31;5167859;28;20404;-45
2022/04/18 03:16:28;;;;;;;11.80;7.80;;;;;;;11.69;37.57;101931.84;5176671;28;20750;-45
2022/04/18 03:19:00;;;;;;;13.73;8.38;;;;;;;11.70;37.62;101925.56;5190528;28;20770;-45
2022/04/18 03:21:33;;;;;;;11.98;8.27;;;;;;;11.70;37.57;101930.03;5178654;28;20507;-48
2022/04/18 03:24:07;;;;;;;17.05;10.45;;;;;;;11.67;37.74;101927.63;5173659;28;20521;-46
2022/04/18 03:26:39;;;;;;;20.55;10.60;;;;;;;11.72;37.68;101933.38;5176339;28;20498;-47
2022/04/18 03:29:12;;;;;;;19.27;10.35;;;;;;;11.71;37.83;101929.06;5175704;28;20477;-45
2022/04/18 03:31:44;;;;;;;17.30;10.02;;;;;;;11.69;37.65;101936.31;5164396;28;20458;-45
2022/04/18 03:34:17;;;;;;;21.88;11.90;;;;;;;11.65;37.81;101927.78;5165984;28;20470;-44
2022/04/18 03:39:54;;;;;;;24.30;11.50;;;;;;;11.44;37.67;101896.03;5158747;28;20485;-45
2022/04/18 03:42:32;;;;;;;27.27;13.63;;;;;;;11.58;37.80;101920.47;5175775;28;20448;-46
2022/04/18 03:45:06;;;;;;;27.58;13.88;;;;;;;11.53;37.99;101916.44;5176411;28;20456;-46
2022/04/18 03:47:39;;;;;;;25.70;13.25;;;;;;;11.60;37.87;101921.19;5175343;28;20476;-44
2022/04/18 03:50:11;;;;;;;20.20;11.23;;;;;;;11.56;37.95;101911.84;5177097;28;20456;-43
2022/04/18 03:52:43;;;;;;;23.13;13.00;;;;;;;11.54;37.89;101906.69;5174705;28;20408;-43
2022/04/18 03:55:17;;;;;;;24.48;12.48;;;;;;;11.60;38.01;101929.13;5179429;28;20587;-45
2022/04/18 03:57:50;;;;;;;23.95;12.60;;;;;;;11.57;37.98;101922.28;5173982;28;20415;-45
2022/04/18 04:00:22;;;;;;;25.27;12.55;;;;;;;11.54;38.03;101912.81;5177804;28;20423;-45
2022/04/18 04:02:55;;;;;;;24.70;12.20;;;;;;;11.25;38.16;101865.03;5163614;28;20457;-44
2022/04/18 04:05:28;;;;;;;25.00;13.85;;;;;;;11.51;38.14;101918.34;5169838;28;20479;-44
2022/04/18 04:08:00;;;;;;;26.17;13.68;;;;;;;11.48;38.09;101917.78;5176160;28;20474;-46
2022/04/18 04:10:34;;;;;;;24.33;12.55;;;;;;;11.48;38.33;101921.25;5174190;28;20412;-43
2022/04/18 04:13:06;;;;;;;23.17;12.63;;;;;;;11.42;38.31;101908.53;5176653;28;20985;-48
2022/04/18 04:15:39;;;;;;;22.08;11.50;;;;;;;11.47;38.19;101918.75;5182596;28;20435;-44
2022/04/18 04:18:11;;;;;;;25.42;12.05;;;;;;;11.46;38.23;101914.44;5168524;28;20459;-45
2022/04/18 04:20:44;;;;;;;20.92;10.80;;;;;;;11.44;38.35;101917.19;5176320;28;20420;-44
2022/04/18 04:23:16;;;;;;;20.00;10.98;;;;;;;11.44;38.30;101911.06;5176417;28;20423;-49
2022/04/18 04:25:50;;;;;;;15.35;9.48;;;;;;;11.41;38.42;101906.88;5163596;28;20498;-43
2022/04/18 04:28:22;;;;;;;13.45;8.38;;;;;;;11.38;38.37;101904.50;5176198;28;20418;-45
2022/04/18 04:30:55;;;;;;;11.68;7.90;;;;;;;11.31;38.17;101895.41;5187214;28;20502;-42
2022/04/18 04:33:30;;;;;;;12.23;8.38;;;;;;;11.26;38.24;101887.00;5179016;28;20840;-44
2022/04/18 04:36:03;;;;;;;11.15;7.05;;;;;;;11.39;38.18;101903.50;5171250;28;20463;-43
2022/04/18 04:38:35;;;;;;;9.90;6.97;;;;;;;11.32;38.21;101894.44;5169194;28;20469;-47
2022/04/18 04:41:09;;;;;;;13.18;7.45;;;;;;;11.39;38.16;101895.56;5175314;28;20427;-47
2022/04/18 04:43:42;;;;;;;11.88;7.88;;;;;;;11.41;38.17;101901.59;5172622;28;20756;-44
2022/04/18 04:46:14;;;;;;;12.48;8.27;;;;;;;11.37;38.40;101892.25;5171848;28;20427;-46
2022/04/18 04:48:46;;;;;;;16.92;8.50;;;;;;;11.37;38.18;101900.19;5173707;28;20449;-43
2022/04/18 04:51:19;;;;;;;19.65;11.60;;;;;;;11.40;38.14;101907.84;5153404;28;20416;-50
2022/04/18 04:53:51;;;;;;;19.57;10.97;;;;;;;11.39;38.08;101911.44;5169830;28;20418;-46
2022/04/18 04:56:25;;;;;;;20.50;11.55;;;;;;;11.39;38.22;101910.63;5185769;28;20501;-49
2022/04/18 04:58:58;;;;;;;20.20;11.85;;;;;;;11.37;38.26;101913.41;5180890;28;20407;-44
2022/04/18 05:01:30;;;;;;;16.93;10.23;;;;;;;11.30;38.27;101917.50;5177419;28;20503;-44
2022/04/18 05:04:03;;;;;;;15.32;9.23;;;;;;;11.35;38.14;101917.97;5174990;28;20413;-44
2022/04/18 05:06:35;;;;;;;15.50;8.38;;;;;;;11.32;38.08;101910.28;5167702;28;20436;-45
2022/04/18 05:09:08;;;;;;;11.98;6.68;;;;;;;11.34;38.18;101913.66;5163872;28;20867;-43
2022/04/18 05:11:43;;;;;;;9.77;5.40;;;;;;;11.42;38.32;101918.28;5162464;28;20423;-45
2022/04/18 05:14:15;;;;;;;7.90;5.25;;;;;;;11.44;38.12;101921.66;5167465;28;20457;-44
2022/04/18 05:16:47;;;;;;;8.05;5.30;;;;;;;11.43;38.02;101904.94;5189423;28;20437;-45
2022/04/18 05:19:20;;;;;;;6.60;5.03;;;;;;;11.52;37.89;101913.91;5167774;28;20473;-45
2022/04/18 05:21:52;;;;;;;7.38;4.63;;;;;;;11.57;37.99;101921.47;5164807;28;20427;-43
2022/04/18 05:24:25;;;;;;;5.25;3.80;;;;;;;11.61;37.97;101918.41;5169981;28;20486;-43
2022/04/18 05:26:59;;;;;;;4.95;4.13;;;;;;;11.65;37.65;101917.19;5181066;28;20453;-45
2022/04/18 05:29:31;;;;;;;7.20;4.10;;;;;;;11.70;37.56;101914.16;5186755;28;20440;-47
2022/04/18 05:32:04;;;;;;;9.02;5.72;;;;;;;11.72;37.72;101905.13;5172055;28;20427;-44
2022/04/18 05:34:36;;;;;;;13.10;5.85;;;;;;;11.73;37.58;101908.59;5169895;28;20431;-44
2022/04/18 05:37:09;;;;;;;11.05;5.38;;;;;;;11.77;37.69;101918.81;5155717;28;20423;-44
2022/04/18 05:39:41;;;;;;;7.97;5.20;;;;;;;11.76;37.67;101900.38;5174423;28;20501;-46
2022/04/18 05:42:15;;;;;;;10.52;5.13;;;;;;;11.79;37.61;101916.00;5166667;28;20409;-47
2022/04/18 05:44:47;;;;;;;7.10;5.22;;;;;;;11.80;37.56;101912.41;5167694;28;20427;-46
2022/04/18 05:47:20;;;;;;;13.55;6.50;;;;;;;11.77;37.66;101902.91;5171505;28;20410;-43
2022/04/18 05:49:52;;;;;;;12.13;7.47;;;;;;;11.78;37.80;101893.16;5167107;28;20410;-47
2022/04/18 05:52:25;;;;;;;11.80;6.72;;;;;;;11.88;37.72;101907.31;5176558;28;20413;-44
2022/04/18 05:54:57;;;;;;;10.68;5.93;;;;;;;11.95;37.57;101911.13;5173729;28;20423;-46
2022/04/18 05:57:31;;;;;;;7.47;5.60;;;;;;;12.00;37.62;101914.19;5171464;28;20618;-44
2022/04/18 06:00:05;;;;;;;8.13;5.72;;;;;;;12.05;37.50;101910.31;5167284;28;20443;-49
2022/04/18 06:02:37;;;;;;;7.88;5.53;;;;;;;12.11;37.52;101915.06;5179001;28;20415;-44
2022/04/18 06:05:10;;;;;;;13.13;5.95;;;;;;;12.59;37.14;101909.09;5179484;28;20430;-46
2022/04/18 06:07:45;;;;;;;14.02;6.47;;;;;;;14.25;36.14;101923.84;5167904;28;20866;-50
2022/04/18 06:10:17;;;;;;;18.00;6.55;;;;;;;16.24;34.40;101919.03;5178732;28;20400;-48
2022/04/18 06:12:52;;;;;;;16.52;7.07;;;;;;;18.01;32.97;101922.16;5179783;28;20858;-48
2022/04/18 06:15:24;;;;;;;14.23;7.28;;;;;;;19.81;31.73;101925.25;5170832;28;20502;-49
2022/04/18 06:17:57;;;;;;;9.70;5.35;;;;;;;21.35;30.33;101927.84;5179105;28;20937;-52
2022/04/18 06:20:29;;;;;;;9.07;4.93;;;;;;;22.50;29.46;101924.59;5170138;28;20912;-49
2022/04/18 06:23:02;;;;;;;12.10;4.60;;;;;;;23.64;28.72;101928.25;5180955;28;20510;-48
2022/04/18 06:25:34;;;;;;;7.78;4.55;;;;;;;24.53;27.96;101929.47;5177861;28;20458;-54
2022/04/18 06:28:08;;;;;;;5.82;3.65;;;;;;;25.42;27.07;101927.56;5178040;28;20433;-54
2022/04/18 06:30:40;;;;;;;5.82;3.28;;;;;;;26.16;26.23;101929.28;5168038;28;20832;-52
2022/04/18 06:33:15;;;;;;;8.45;3.60;;;;;;;26.98;25.82;101925.28;5171223;28;20397;-52
2022/04/18 06:35:47;;;;;;;13.10;3.35;;;;;;;27.72;25.39;101931.94;5177492;28;20507;-53
2022/04/18 06:38:20;;;;;;;4.50;2.92;;;;;;;28.53;24.52;101931.19;5172788;28;20433;-51
2022/04/18 06:40:52;;;;;;;5.50;3.40;;;;;;;29.14;23.94;101932.25;5175279;28;20852;-52
2022/04/18 06:43:26;;;;;;;5.95;2.90;;;;;;;29.73;23.43;101929.91;5178567;28;20423;-55
2022/04/18 06:45:59;;;;;;;4.63;2.93;;;;;;;29.97;23.12;101930.47;5181212;28;20434;-52
2022/04/18 06:48:31;;;;;;;13.40;4.93;;;;;;;30.22;22.96;101935.44;5158642;28;20467;-55
2022/04/18 06:51:04;;;;;;;10.27;4.60;;;;;;;30.51;22.53;101935.22;5176372;28;20484;-52
2022/04/18 06:53:37;;;;;;;7.50;3.45;;;;;;;30.73;22.27;101949.59;5182018;28;20499;-56
2022/04/18 06:59:00;;;;;;;5.35;3.35;;;;;;;30.92;21.77;101935.63;5182784;28;20861;-51
2022/04/18 07:01:33;;;;;;;7.32;3.00;;;;;;;31.06;21.68;101936.00;5175179;28;20446;-55
2022/04/18 07:04:06;;;;;;;5.32;3.05;;;;;;;31.29;21.54;101932.09;5183886;28;20415;-55
2022/04/18 07:06:39;;;;;;;6.40;3.33;;;;;;;31.58;21.15;101935.28;5186088;28;20415;-55
2022/04/18 07:09:11;;;;;;;4.40;2.90;;;;;;;31.81;20.85;101936.78;5188194;28;20432;-55
2022/04/18 07:11:45;;;;;;;7.03;3.10;;;;;;;32.21;20.49;101936.16;5182044;28;20404;-56
2022/04/18 07:14:18;;;;;;;3.72;2.70;;;;;;;32.22;20.30;101906.91;5189685;28;20421;-54
2022/04/18 07:16:53;;;;;;;4.68;3.10;;;;;;;32.28;20.29;101930.44;5185454;28;20395;-54
2022/04/18 07:19:25;;;;;;;4.95;2.88;;;;;;;32.20;20.40;101929.03;5174612;28;20433;-55
2022/04/18 07:21:58;;;;;;;3.95;2.63;;;;;;;32.09;20.45;101921.91;5183594;28;20785;-56
2022/04/18 07:24:30;;;;;;;4.43;2.70;;;;;;;32.36;20.24;101927.16;5182492;28;20526;-53
2022/04/18 07:27:03;;;;;;;4.50;3.13;;;;;;;32.41;19.89;101929.09;5190691;28;20443;-56
2022/04/18 07:29:37;;;;;;;5.88;3.30;;;;;;;32.38;19.77;101924.97;5185195;28;20489;-54
2022/04/18 07:32:10;;;;;;;4.47;3.33;;;;;;;32.58;19.59;101925.03;5182549;28;20491;-55
2022/04/18 07:34:47;;;;;;;6.03;3.50;;;;;;;32.74;19.32;101941.47;5171413;28;20549;-54
2022/04/18 07:37:19;;;;;;;8.98;3.22;;;;;;;32.60;19.30;101922.84;5188359;28;20404;-52
2022/04/18 07:39:51;;;;;;;5.10;3.08;;;;;;;32.21;19.50;101930.69;5189980;28;20498;-56
2022/04/18 07:42:24;;;;;;;6.93;3.30;;;;;;;31.91;19.65;101925.94;5186215;28;20419;-54
2022/04/18 07:44:59;;;;;;;6.55;3.60;;;;;;;31.46;20.09;101930.03;5186224;28;20514;-54
2022/04/18 07:47:31;;;;;;;5.87;3.57;;;;;;;31.21;20.25;101923.28;5183588;28;20506;-55
2022/04/18 07:50:05;;;;;;;5.82;3.33;;;;;;;31.07;20.24;101919.38;5184973;28;20419;-56
2022/04/18 07:52:38;;;;;;;4.60;2.97;;;;;;;30.97;20.40;101931.03;5179228;28;20423;-55
2022/04/18 07:55:10;;;;;;;5.65;3.05;;;;;;;31.09;20.37;101925.38;5186774;28;20426;-57
2022/04/18 07:57:43;;;;;;;4.77;3.20;;;;;;;31.03;20.22;101929.16;5184207;28;20424;-54
2022/04/18 08:00:17;;;;;;;5.53;2.80;;;;;;;31.23;20.31;101929.31;5169603;28;20409;-54
2022/04/18 08:02:49;;;;;;;4.47;2.72;;;;;;;31.33;20.03;101919.53;5176559;28;20419;-56
2022/04/18 08:05:22;;;;;;;4.80;3.10;;;;;;;31.36;19.96;101908.13;5168148;28;20427;-55
2022/04/18 08:07:54;;;;;;;3.25;2.45;;;;;;;31.10;20.11;101853.38;5169670;28;20735;-55
2022/04/18 08:10:29;;;;;;;4.68;2.60;;;;;;;31.19;20.28;101919.19;5186813;28;20430;-56
2022/04/18 08:13:02;;;;;;;5.70;2.60;;;;;;;30.62;20.60;101925.22;5186261;28;20431;-56
2022/04/18 08:15:36;;;;;;;5.85;3.22;;;;;;;30.30;20.84;101926.00;5187353;28;20435;-57
2022/04/18 08:18:08;;;;;;;3.58;2.45;;;;;;;30.05;20.82;101926.50;5185764;28;20438;-55
2022/04/18 08:20:41;;;;;;;5.05;3.00;;;;;;;29.64;21.09;101893.31;5188847;28;20504;-56
2022/04/18 08:23:14;;;;;;;6.10;2.70;;;;;;;29.50;21.29;101919.19;5184298;28;20419;-54
2022/04/18 08:25:46;;;;;;;4.40;2.28;;;;;;;29.55;21.30;101916.56;5184058;28;20421;-56
2022/04/18 08:28:18;;;;;;;5.20;2.53;;;;;;;29.58;21.39;101919.59;5170509;28;20421;-54
2022/04/18 08:30:52;;;;;;;4.03;2.53;;;;;;;29.54;21.33;101923.88;5179906;28;20500;-55
2022/04/18 08:33:26;;;;;;;4.68;2.40;;;;;;;29.42;21.46;101918.56;5188832;28;20962;-56
2022/04/18 08:35:58;;;;;;;4.50;2.65;;;;;;;29.17;21.81;101920.88;5175779;28;20426;-55
2022/04/18 08:38:31;;;;;;;3.60;2.55;;;;;;;28.73;21.69;101916.03;5170773;28;20424;-57
2022/04/18 08:41:07;;;;;;;4.82;2.33;;;;;;;28.07;22.11;101911.25;5167602;28;20429;-55
2022/04/18 08:43:42;;;;;;;3.58;2.33;;;;;;;27.47;22.37;101924.06;5173568;28;20410;-55
2022/04/18 08:46:18;;;;;;;5.03;2.20;;;;;;;27.02;22.81;101916.44;5181070;28;20915;-50
2022/04/18 08:54:35;;;;;;;4.93;2.47;;;;;;;26.03;22.91;101907.81;5185858;28;20429;-55
2022/04/18 08:57:08;;;;;;;4.72;2.30;;;;;;;25.84;23.16;101917.00;5176196;28;20415;-54
2022/04/18 08:59:40;;;;;;;5.55;2.88;;;;;;;25.55;23.27;101895.00;5167249;28;20425;-57
2022/04/18 09:02:14;;;;;;;5.07;2.60;;;;;;;25.67;23.23;101922.13;5173215;28;20463;-54
2022/04/18 09:04:48;;;;;;;4.17;2.57;;;;;;;25.27;23.25;101882.78;5163554;28;20428;-56
2022/04/18 09:07:20;;;;;;;6.05;2.70;;;;;;;25.22;23.18;101912.34;5179157;28;20414;-50
2022/04/18 09:09:55;;;;;;;10.48;2.38;;;;;;;24.97;23.24;101909.63;5178701;28;20428;-57
2022/04/18 09:12:31;;;;;;;8.23;2.83;;;;;;;24.76;23.32;101909.97;5174546;28;20441;-52
2022/04/18 09:15:03;;;;;;;6.93;2.87;;;;;;;24.66;23.27;101913.16;5173341;28;20427;-53
2022/04/18 09:17:38;;;;;;;6.57;2.80;;;;;;;24.47;23.48;101920.34;5178160;28;20501;-52
2022/04/18 09:20:21;;;;;;;5.00;2.35;;;;;;;24.08;23.63;101910.50;5174292;28;20435;-52
2022/04/18 09:22:54;;;;;;;6.88;2.63;;;;;;;23.78;23.59;101911.00;5162438;28;20417;-52
2022/04/18 09:25:26;;;;;;;4.55;2.50;;;;;;;23.69;23.75;101912.28;5155455;28;20452;-52
2022/04/18 09:28:00;;;;;;;6.10;3.07;;;;;;;23.70;23.53;101905.88;5173988;28;20411;-55
2022/04/18 09:30:34;;;;;;;6.47;3.15;;;;;;;23.70;23.46;101913.94;5181936;28;20430;-54
2022/04/18 09:33:09;;;;;;;5.17;2.80;;;;;;;23.58;23.36;101905.63;5175042;28;20525;-51
2022/04/18 09:35:41;;;;;;;3.22;2.28;;;;;;;23.41;23.52;101905.25;5169998;28;20425;-50
2022/04/18 09:38:18;;;;;;;4.05;2.72;;;;;;;23.36;23.69;101905.03;5163322;28;20933;-53
2022/04/18 09:40:54;;;;;;;3.92;2.90;;;;;;;23.35;23.72;101905.25;5173896;28;20426;-48
2022/04/18 09:43:36;;;;;;;5.70;3.42;;;;;;;23.39;23.70;101910.03;5171681;28;20429;-55
2022/04/18 09:46:10;;;;;;;7.28;3.50;;;;;;;23.46;23.68;101896.53;5162556;28;20869;-53
2022/04/18 09:48:45;;;;;;;6.10;2.92;;;;;;;23.33;23.76;101912.72;5164906;28;20415;-51
2022/04/18 09:51:23;;;;;;;5.57;3.40;;;;;;;23.35;23.72;101897.16;5172842;28;20433;-57
2022/04/18 09:53:58;;;;;;;7.70;2.80;;;;;;;23.36;23.88;101906.91;5171685;28;20476;-52
2022/04/18 09:56:31;;;;;;;4.00;3.25;;;;;;;23.31;23.97;101894.06;5175574;28;20455;-52
2022/04/18 09:59:04;;;;;;;5.80;2.75;;;;;;;23.37;24.07;101908.56;5180270;28;20431;-54
2022/04/18 10:01:37;;;;;;;4.45;3.35;;;;;;;23.27;24.07;101865.88;5168126;28;20416;-55
2022/04/18 10:04:11;;;;;;;5.35;3.20;;;;;;;23.53;23.75;101896.50;5179854;28;20492;-52
2022/04/18 10:06:45;;;;;;;6.57;3.13;;;;;;;23.65;23.84;101889.44;5174873;28;20557;-50
2022/04/18 10:09:18;;;;;;;7.30;3.35;;;;;;;23.81;23.51;101897.09;5174183;28;20458;-57
2022/04/18 10:11:51;;;;;;;7.35;3.72;;;;;;;23.87;23.67;101888.16;5162902;28;20416;-57
2022/04/18 10:14:24;;;;;;;5.15;3.03;;;;;;;23.81;23.70;101883.59;5168801;28;20562;-54
2022/04/18 10:16:57;;;;;;;3.80;2.97;;;;;;;23.91;23.45;101888.59;5174053;28;20420;-56
2022/04/18 10:19:50;;;;;;;4.93;2.92;;;;;;;23.91;23.59;101889.41;5178823;28;20414;-56
2022/04/18 10:23:00;;;;;;;4.38;2.80;;;;;;;23.92;23.53;101891.06;5165109;28;20508;-55
2022/04/18 10:26:02;;;;;;;4.63;2.65;;;;;;;23.90;23.67;101889.59;5163629;28;20436;-55
2022/04/18 10:28:38;;;;;;;5.68;3.13;;;;;;;24.15;23.50;101887.00;5167340;28;20425;-53
2022/04/18 10:31:16;;;;;;;4.72;2.50;;;;;;;24.32;23.25;101874.69;5174491;28;20423;-51
2022/04/18 10:33:50;;;;;;;4.95;2.70;;;;;;;24.27;23.20;101842.09;5162892;28;20414;-54
2022/04/18 10:36:28;;;;;;;6.55;3.30;;;;;;;24.66;22.97;101888.03;5170235;28;20402;-56
2022/04/18 10:39:05;;;;;;;4.75;2.70;;;;;;;24.74;23.03;101885.88;5174594;28;20427;-55
2022/04/18 10:41:40;;;;;;;4.95;2.50;;;;;;;24.75;23.15;101884.84;5181691;28;20506;-54
2022/04/18 10:48:10;;;;;;;3.58;2.70;;;;;;;24.66;23.00;101885.34;5185679;23;20416;-56
2022/04/18 10:50:47;;;;;;;6.77;4.10;;;;;;;24.61;23.01;101872.47;5140832;28;20426;-58
2022/04/18 10:56:18;;;;;;;4.35;2.72;;;;;;;24.85;22.90;101879.78;5230766;27;20406;-55
2022/04/18 10:58:51;;;;;;;4.05;2.40;;;;;;;24.76;22.77;101862.19;5172241;28;20446;-58
2022/04/18 11:01:38;;;;;;;5.20;3.00;;;;;;;24.85;22.92;101879.78;5166149;27;20562;-57
2022/04/18 11:04:11;;;;;;;4.25;2.67;;;;;;;24.90;22.88;101865.63;5192911;27;20403;-54
2022/04/18 11:06:59;;;;;;;3.28;2.47;;;;;;;24.96;22.78;101874.69;5208440;28;21992;-55
2022/04/18 11:09:34;;;;;;;5.30;2.80;;;;;;;25.04;22.71;101877.13;5192378;27;20832;-57
2022/04/18 11:12:13;;;;;;;3.20;2.60;;;;;;;25.06;22.68;101870.47;5173777;28;20434;-56
2022/04/18 11:14:49;;;;;;;3.92;3.00;;;;;;;24.97;22.63;101854.75;5199620;28;20426;-54
2022/04/18 11:17:29;;;;;;;4.43;2.83;;;;;;;25.12;22.67;101871.47;5195862;27;20432;-55
2022/04/18 11:20:28;;;;;;;6.63;2.83;;;;;;;25.18;22.55;101878.72;5179157;27;20936;-57
2022/04/18 11:23:23;;;;;;;10.27;3.15;;;;;;;25.26;22.54;101870.31;5158438;27;20412;-57
2022/04/18 11:26:00;;;;;;;3.72;2.65;;;;;;;25.39;22.35;101879.34;5177597;27;20409;-52
2022/04/18 11:28:36;;;;;;;4.47;2.93;;;;;;;25.44;22.24;101877.63;5169796;28;20407;-54
2022/04/18 11:31:11;;;;;;;6.20;3.40;;;;;;;25.44;22.11;101880.31;5167754;27;20416;-55
2022/04/18 11:33:46;;;;;;;3.70;2.55;;;;;;;25.32;22.34;101867.78;5169674;28;20411;-53
2022/04/18 11:36:20;;;;;;;6.35;3.10;;;;;;;25.31;22.43;101861.53;5162147;28;20990;-53
2022/04/18 11:39:04;;;;;;;3.20;2.65;;;;;;;25.25;22.25;101865.13;5189631;27;20450;-54
2022/04/18 11:41:36;;;;;;;3.25;2.60;;;;;;;25.25;22.16;101868.66;5170372;27;20424;-53
2022/04/18 11:44:10;;;;;;;4.22;2.90;;;;;;;25.35;22.29;101870.84;5168965;27;21064;-53
2022/04/18 11:46:42;;;;;;;7.13;2.60;;;;;;;25.31;22.16;101856.13;5194217;27;20419;-49
2022/04/18 11:49:25;;;;;;;3.20;2.45;;;;;;;25.24;22.23;101867.00;5180205;27;20428;-51
2022/04/18 11:51:57;;;;;;;31.40;4.20;;;;;;;25.22;22.15;101852.88;5194134;27;20409;-51
2022/04/18 11:54:30;;;;;;;3.78;2.28;;;;;;;25.22;21.95;101855.59;5193326;27;20430;-51
2022/04/18 11:57:04;;;;;;;3.55;2.40;;;;;;;25.30;21.95;101859.88;5187655;27;20419;-52
2022/04/18 11:59:38;;;;;;;2.43;2.23;;;;;;;25.25;21.83;101857.84;5160745;27;20997;-54
2022/04/18 12:07:56;;;;;;;3.63;1.85;;;;;;;25.04;21.45;101855.50;5156036;28;20935;-50
2022/04/18 12:10:31;;;;;;;2.83;2.10;;;;;;;24.66;21.48;101815.91;5171705;28;20485;-51
2022/04/18 12:13:07;;;;;;;5.10;2.10;;;;;;;24.79;21.45;101845.53;5142489;28;20447;-52
2022/04/18 12:15:42;;;;;;;2.45;1.63;;;;;;;24.80;21.17;101841.78;5181467;28;20463;-49
2022/04/18 12:18:17;;;;;;;2.63;1.80;;;;;;;24.84;21.20;101834.06;5143151;28;20440;-48